Time;durP1;ratioP1;P1;durP2;ratioP2;P2;SDS_P1;SDS_P2;PMS_P1;PMS_P2;Temp;Humidity;BMP_temperature;BMP_pressure;BME280_temperature;BME280_humidity;BME280_pressure;Samples;Min_cycle;Max_cycle;Signal;HPM_P1;HPM_P2
2023/04/26 00:01:17;;;;;;;1.95;1.58;;;;;;;;;;5076258;28;20870;-80
2023/04/26 00:03:43;;;;;;;2.35;1.80;;;;;;;;;;5094441;28;20381;-80
2023/04/26 00:06:09;;;;;;;2.00;1.90;;;;;;;;;;5094112;28;20410;-79
2023/04/26 00:08:38;;;;;;;1.90;1.80;;;;;;;;;;5094400;28;20379;-79
2023/04/26 00:11:04;;;;;;;3.03;2.20;;;;;;;;;;5094211;28;20378;-80
2023/04/26 00:13:30;;;;;;;2.55;2.35;;;;;;;;;;5094321;28;20385;-79
2023/04/26 00:15:56;;;;;;;3.00;2.80;;;;;;;;;;5075688;28;20390;-79
2023/04/26 00:18:23;;;;;;;3.20;3.00;;;;;;;;;;5094464;28;20374;-79
2023/04/26 00:20:49;;;;;;;3.75;3.45;;;;;;;;;;5094111;28;20414;-79
2023/04/26 00:23:16;;;;;;;3.50;3.20;;;;;;;;;;5093486;28;20428;-79
2023/04/26 00:25:42;;;;;;;3.70;3.40;;;;;;;;;;5093570;28;20370;-79
2023/04/26 00:28:08;;;;;;;3.80;3.50;;;;;;;;;;5093466;28;20797;-79
2023/04/26 00:30:36;;;;;;;3.70;3.40;;;;;;;;;;5093698;28;20374;-80
2023/04/26 00:33:02;;;;;;;3.50;3.25;;;;;;;;;;5093870;28;20373;-79
2023/04/26 00:35:28;;;;;;;3.40;3.10;;;;;;;;;;5093770;28;20727;-79
2023/04/26 00:37:54;;;;;;;3.67;3.38;;;;;;;;;;5092759;28;20381;-79
2023/04/26 00:40:20;;;;;;;2.80;2.60;;;;;;;;;;5093602;28;20431;-79
2023/04/26 00:42:46;;;;;;;3.03;2.80;;;;;;;;;;5093704;28;20381;-79
2023/04/26 00:45:12;;;;;;;2.87;2.67;;;;;;;;;;5103916;28;20481;-80
2023/04/26 00:47:38;;;;;;;2.85;2.65;;;;;;;;;;5095401;28;20926;-80
2023/04/26 00:50:07;;;;;;;3.00;2.80;;;;;;;;;;5104384;28;20459;-79
2023/04/26 00:52:33;;;;;;;3.15;2.88;;;;;;;;;;5108639;28;20392;-79
2023/04/26 00:54:59;;;;;;;3.22;2.92;;;;;;;;;;5111791;28;20760;-79
2023/04/26 00:57:25;;;;;;;3.60;3.30;;;;;;;;;;5096999;28;20382;-79
2023/04/26 00:59:51;;;;;;;3.00;2.80;;;;;;;;;;5092933;28;20378;-80
2023/04/26 01:02:17;;;;;;;3.30;3.00;;;;;;;;;;5093241;28;20515;-79
2023/04/26 01:04:44;;;;;;;3.05;2.85;;;;;;;;;;5093151;28;20736;-79
2023/04/26 01:07:10;;;;;;;2.75;2.55;;;;;;;;;;5093201;28;20475;-80
2023/04/26 01:09:36;;;;;;;2.50;2.30;;;;;;;;;;5093058;28;21060;-79
2023/04/26 01:12:03;;;;;;;2.10;1.80;;;;;;;;;;5093151;28;20386;-80
2023/04/26 01:14:30;;;;;;;2.10;1.92;;;;;;;;;;5092974;28;20389;-79
2023/04/26 01:16:56;;;;;;;1.90;1.80;;;;;;;;;;5092757;28;20410;-80
2023/04/26 01:19:22;;;;;;;1.80;1.70;;;;;;;;;;5092840;28;20378;-80
2023/04/26 01:21:49;;;;;;;2.28;2.08;;;;;;;;;;5092475;28;20374;-79
2023/04/26 01:24:15;;;;;;;3.45;2.50;;;;;;;;;;5092895;28;20878;-79
2023/04/26 01:26:45;;;;;;;3.00;2.80;;;;;;;;;;5092661;28;20402;-80
2023/04/26 01:29:17;;;;;;;3.42;3.13;;;;;;;;;;5092826;28;20374;-79
2023/04/26 01:31:44;;;;;;;2.97;2.77;;;;;;;;;;5092478;28;20370;-79
2023/04/26 01:34:10;;;;;;;2.78;2.58;;;;;;;;;;5092840;28;20374;-79
2023/04/26 01:36:36;;;;;;;2.60;2.50;;;;;;;;;;5092619;28;20382;-79
2023/04/26 01:39:03;;;;;;;3.35;2.83;;;;;;;;;;5092521;28;20381;-79
2023/04/26 01:41:29;;;;;;;3.30;3.10;;;;;;;;;;5092550;28;20421;-79
2023/04/26 01:43:55;;;;;;;3.00;2.80;;;;;;;;;;5092327;28;20382;-79
2023/04/26 01:46:21;;;;;;;2.70;2.40;;;;;;;;;;5096829;28;20401;-79
2023/04/26 01:48:47;;;;;;;2.75;2.55;;;;;;;;;;5101740;28;20734;-79
2023/04/26 01:51:13;;;;;;;2.90;2.70;;;;;;;;;;5098281;28;20373;-79
2023/04/26 01:53:39;;;;;;;3.03;2.72;;;;;;;;;;5104755;28;20401;-80
2023/04/26 01:56:05;;;;;;;2.75;2.60;;;;;;;;;;5108410;28;20871;-79
2023/04/26 01:58:31;;;;;;;2.97;2.78;;;;;;;;;;5107309;28;20467;-79
2023/04/26 02:01:04;;;;;;;3.08;2.70;;;;;;;;;;5094591;28;20386;-79
2023/04/26 02:03:30;;;;;;;4.40;2.83;;;;;;;;;;5091973;28;20382;-79
2023/04/26 02:05:56;;;;;;;2.90;2.70;;;;;;;;;;5091829;28;20972;-79
2023/04/26 02:08:22;;;;;;;2.80;2.60;;;;;;;;;;5092007;28;20381;-79
2023/04/26 02:10:48;;;;;;;3.30;2.80;;;;;;;;;;5091893;28;20439;-79
2023/04/26 02:13:14;;;;;;;2.80;2.60;;;;;;;;;;5092000;28;20382;-80
2023/04/26 02:15:41;;;;;;;2.97;2.78;;;;;;;;;;5091768;28;20734;-79
2023/04/26 02:18:08;;;;;;;2.80;2.60;;;;;;;;;;5091503;28;20561;-79
2023/04/26 02:20:35;;;;;;;2.40;2.22;;;;;;;;;;5080757;28;20586;-79
2023/04/26 02:23:01;;;;;;;3.03;2.70;;;;;;;;;;5088882;28;20367;-79
2023/04/26 02:25:27;;;;;;;2.90;2.60;;;;;;;;;;5091809;28;20381;-79
2023/04/26 02:27:53;;;;;;;3.00;2.80;;;;;;;;;;5091038;28;20406;-79
2023/04/26 02:30:19;;;;;;;2.80;2.60;;;;;;;;;;5091667;28;20492;-79
2023/04/26 02:32:45;;;;;;;2.75;2.55;;;;;;;;;;5091712;28;20378;-80
2023/04/26 02:35:11;;;;;;;3.38;3.13;;;;;;;;;;5091545;28;20378;-79
2023/04/26 02:37:37;;;;;;;2.67;2.47;;;;;;;;;;5091516;28;20381;-79
2023/04/26 02:40:04;;;;;;;2.70;2.50;;;;;;;;;;5091636;28;20484;-79
2023/04/26 02:42:30;;;;;;;2.28;2.10;;;;;;;;;;5091264;28;20397;-79
2023/04/26 02:44:56;;;;;;;2.47;2.20;;;;;;;;;;5091511;28;20378;-80
2023/04/26 02:47:22;;;;;;;2.00;1.90;;;;;;;;;;5090993;28;20409;-79
2023/04/26 02:49:50;;;;;;;2.60;1.80;;;;;;;;;;5109469;28;20492;-79
2023/04/26 02:52:15;;;;;;;1.65;1.55;;;;;;;;;;5102320;28;20372;-79
2023/04/26 02:54:41;;;;;;;2.00;1.70;;;;;;;;;;5094084;28;20384;-79
2023/04/26 02:57:08;;;;;;;1.60;1.50;;;;;;;;;;5103159;28;20376;-79
2023/04/26 02:59:34;;;;;;;2.17;1.97;;;;;;;;;;5093436;28;20370;-79
2023/04/26 03:02:00;;;;;;;1.83;1.73;;;;;;;;;;5073224;28;20473;-79
2023/04/26 03:04:26;;;;;;;1.98;1.80;;;;;;;;;;5091145;28;20382;-79
2023/04/26 03:06:52;;;;;;;2.08;1.98;;;;;;;;;;5090713;28;20413;-79
2023/04/26 03:09:18;;;;;;;1.50;1.40;;;;;;;;;;5091136;28;20370;-79
2023/04/26 03:11:45;;;;;;;1.60;1.50;;;;;;;;;;5091294;28;20374;-79
2023/04/26 03:14:11;;;;;;;2.00;1.80;;;;;;;;;;5091143;28;20380;-79
2023/04/26 03:16:43;;;;;;;1.90;1.47;;;;;;;;;;5090958;28;20422;-79
2023/04/26 03:19:09;;;;;;;1.70;1.60;;;;;;;;;;5091104;28;20378;-79
2023/04/26 03:21:35;;;;;;;2.45;2.20;;;;;;;;;;5091021;28;20913;-80
2023/04/26 03:24:02;;;;;;;2.50;2.30;;;;;;;;;;5089665;28;20374;-80
2023/04/26 03:26:28;;;;;;;2.40;2.20;;;;;;;;;;5090849;28;20402;-79
2023/04/26 03:28:54;;;;;;;2.22;1.90;;;;;;;;;;5082212;28;20430;-79
2023/04/26 03:31:21;;;;;;;1.88;1.77;;;;;;;;;;5086627;28;20885;-79
2023/04/26 03:33:47;;;;;;;1.80;1.65;;;;;;;;;;5072449;28;20890;-79
2023/04/26 03:36:13;;;;;;;1.75;1.65;;;;;;;;;;5090174;28;20463;-79
2023/04/26 03:38:39;;;;;;;1.80;1.70;;;;;;;;;;5088558;28;20416;-79
2023/04/26 03:41:05;;;;;;;1.88;1.77;;;;;;;;;;5090628;28;20389;-79
2023/04/26 03:43:31;;;;;;;2.00;1.90;;;;;;;;;;5090763;28;20386;-78
2023/04/26 03:45:57;;;;;;;2.00;1.90;;;;;;;;;;5090439;28;20378;-79
2023/04/26 03:48:23;;;;;;;2.05;1.65;;;;;;;;;;5091280;28;20847;-78
2023/04/26 03:50:49;;;;;;;1.88;1.77;;;;;;;;;;5099584;28;20405;-79
2023/04/26 03:53:15;;;;;;;3.00;2.10;;;;;;;;;;5090438;28;21106;-80
2023/04/26 03:55:41;;;;;;;2.90;2.40;;;;;;;;;;5091772;28;20463;-79
2023/04/26 03:58:07;;;;;;;1.85;1.67;;;;;;;;;;5096874;28;20430;-78
2023/04/26 04:00:37;;;;;;;2.00;1.90;;;;;;;;;;5096251;28;20381;-79
2023/04/26 04:03:03;;;;;;;2.00;1.85;;;;;;;;;;5071175;28;20890;-79
2023/04/26 04:05:29;;;;;;;2.15;2.00;;;;;;;;;;5090146;28;20731;-79
2023/04/26 04:07:55;;;;;;;1.77;1.67;;;;;;;;;;5089603;28;20987;-79
2023/04/26 04:10:22;;;;;;;1.90;1.80;;;;;;;;;;5088386;28;20418;-79
2023/04/26 04:12:48;;;;;;;2.20;2.10;;;;;;;;;;5091684;28;20370;-79
2023/04/26 04:15:14;;;;;;;2.10;1.90;;;;;;;;;;5092311;28;20400;-79
2023/04/26 04:17:40;;;;;;;3.33;2.50;;;;;;;;;;5091696;28;20406;-79
2023/04/26 04:20:07;;;;;;;2.00;1.80;;;;;;;;;;5092758;28;20427;-79
2023/04/26 04:22:33;;;;;;;2.00;1.90;;;;;;;;;;5092608;28;20390;-79
2023/04/26 04:24:59;;;;;;;1.73;1.63;;;;;;;;;;5074851;28;20388;-80
2023/04/26 04:27:25;;;;;;;2.88;1.98;;;;;;;;;;5092088;28;20891;-80
2023/04/26 04:29:52;;;;;;;1.92;1.80;;;;;;;;;;5092574;28;20382;-79
2023/04/26 04:32:22;;;;;;;2.00;1.80;;;;;;;;;;5093011;28;20381;-78
2023/04/26 04:34:50;;;;;;;3.25;2.95;;;;;;;;;;5092015;28;20378;-79
2023/04/26 04:37:17;;;;;;;3.17;1.90;;;;;;;;;;5073494;28;20478;-80
2023/04/26 04:39:43;;;;;;;2.03;1.73;;;;;;;;;;5092988;28;20390;-80
2023/04/26 04:42:11;;;;;;;1.90;1.80;;;;;;;;;;5093441;28;20461;-80
2023/04/26 04:44:36;;;;;;;2.20;2.00;;;;;;;;;;5092933;28;20381;-82
2023/04/26 04:47:03;;;;;;;1.98;1.77;;;;;;;;;;5092808;28;20455;-81
2023/04/26 04:49:30;;;;;;;1.90;1.80;;;;;;;;;;5093070;28;20467;-81
2023/04/26 04:51:57;;;;;;;2.60;2.00;;;;;;;;;;5103657;28;20887;-81
2023/04/26 04:54:23;;;;;;;3.73;2.07;;;;;;;;;;5095009;28;20867;-82
2023/04/26 04:56:50;;;;;;;2.10;2.00;;;;;;;;;;5093543;28;20385;-82
2023/04/26 04:59:16;;;;;;;2.58;1.95;;;;;;;;;;5098214;28;20378;-81
2023/04/26 05:01:42;;;;;;;2.40;2.20;;;;;;;;;;5079716;28;20393;-81
2023/04/26 05:04:08;;;;;;;2.20;2.00;;;;;;;;;;5091914;28;20855;-81
2023/04/26 05:06:34;;;;;;;2.25;1.80;;;;;;;;;;5087107;28;20402;-82
2023/04/26 05:09:00;;;;;;;2.65;2.45;;;;;;;;;;5093626;28;20374;-82
2023/04/26 05:11:26;;;;;;;2.20;2.10;;;;;;;;;;5093264;28;20817;-81
2023/04/26 05:13:52;;;;;;;2.60;2.40;;;;;;;;;;5092529;28;20743;-81
2023/04/26 05:16:18;;;;;;;3.03;2.20;;;;;;;;;;5092346;28;20740;-81
2023/04/26 05:18:44;;;;;;;2.50;2.30;;;;;;;;;;5092959;28;20408;-82
2023/04/26 05:21:10;;;;;;;2.72;2.50;;;;;;;;;;5092844;28;20382;-82
2023/04/26 05:23:36;;;;;;;3.25;2.95;;;;;;;;;;5090318;28;20385;-82
2023/04/26 05:26:06;;;;;;;3.90;3.60;;;;;;;;;;5074154;28;20863;-82
2023/04/26 05:28:33;;;;;;;5.63;5.13;;;;;;;;;;5091815;28;20931;-82
2023/04/26 05:31:00;;;;;;;8.00;7.15;;;;;;;;;;5092404;28;20390;-81
2023/04/26 05:33:29;;;;;;;6.28;5.63;;;;;;;;;;5092515;28;20393;-82
2023/04/26 05:35:56;;;;;;;7.72;6.72;;;;;;;;;;5092415;28;20370;-82
2023/04/26 05:38:23;;;;;;;9.88;7.43;;;;;;;;;;5092622;28;20401;-81
2023/04/26 05:40:49;;;;;;;15.20;10.20;;;;;;;;;;5092384;28;20382;-82
2023/04/26 05:43:15;;;;;;;14.38;11.05;;;;;;;;;;5092624;28;20508;-82
2023/04/26 05:45:50;;;;;;;18.63;12.85;;;;;;;;;;5091998;28;20514;-82
2023/04/26 05:48:16;;;;;;;23.40;16.20;;;;;;;;;;5092371;28;20402;-82
2023/04/26 05:50:42;;;;;;;23.58;15.02;;;;;;;;;;5092264;28;20503;-82
2023/04/26 05:53:08;;;;;;;23.45;14.93;;;;;;;;;;5081806;28;20389;-82
2023/04/26 05:55:34;;;;;;;28.75;17.63;;;;;;;;;;5095285;28;20386;-82
2023/04/26 05:58:00;;;;;;;19.90;14.88;;;;;;;;;;5103264;28;20377;-82
2023/04/26 06:00:26;;;;;;;19.25;14.23;;;;;;;;;;5103420;28;20392;-82
2023/04/26 06:02:52;;;;;;;13.60;11.80;;;;;;;;;;5105790;28;20378;-81
2023/04/26 06:05:19;;;;;;;14.85;12.70;;;;;;;;;;5092230;28;20378;-82
2023/04/26 06:07:45;;;;;;;13.93;11.40;;;;;;;;;;5091565;28;20481;-82
2023/04/26 06:10:12;;;;;;;10.80;9.70;;;;;;;;;;5092055;28;20473;-82
2023/04/26 06:12:38;;;;;;;10.65;8.68;;;;;;;;;;5090902;28;20453;-83
2023/04/26 06:15:04;;;;;;;10.75;9.63;;;;;;;;;;5090481;28;20381;-82
2023/04/26 06:17:30;;;;;;;10.82;9.68;;;;;;;;;;5090788;28;20410;-82
2023/04/26 06:19:56;;;;;;;10.00;9.10;;;;;;;;;;5091771;28;20461;-82
2023/04/26 06:22:22;;;;;;;12.15;10.95;;;;;;;;;;5091079;28;20390;-82
2023/04/26 06:24:48;;;;;;;13.27;11.50;;;;;;;;;;5091639;28;20374;-82
2023/04/26 06:27:14;;;;;;;13.18;11.77;;;;;;;;;;5091537;28;20458;-82
2023/04/26 06:29:42;;;;;;;12.68;11.20;;;;;;;;;;5091747;28;20377;-81
2023/04/26 06:32:08;;;;;;;12.18;10.80;;;;;;;;;;5091625;28;20428;-81
2023/04/26 06:34:35;;;;;;;14.25;11.98;;;;;;;;;;5090539;28;20406;-81
2023/04/26 06:37:01;;;;;;;12.27;11.07;;;;;;;;;;5091491;28;20434;-81
2023/04/26 06:39:27;;;;;;;12.02;10.77;;;;;;;;;;5090722;28;20386;-81
2023/04/26 06:41:53;;;;;;;11.45;10.25;;;;;;;;;;5090310;28;20378;-80
2023/04/26 06:44:20;;;;;;;11.73;10.63;;;;;;;;;;5091366;28;20743;-83
2023/04/26 06:46:45;;;;;;;11.30;10.30;;;;;;;;;;5091231;28;20404;-82
2023/04/26 06:49:11;;;;;;;10.75;9.75;;;;;;;;;;5089649;28;21006;-80
2023/04/26 06:51:37;;;;;;;11.27;10.07;;;;;;;;;;5091218;28;20427;-80
2023/04/26 06:54:04;;;;;;;12.60;10.55;;;;;;;;;;5095151;28;20427;-80
2023/04/26 06:56:31;;;;;;;10.40;9.50;;;;;;;;;;5102504;28;20455;-80
2023/04/26 06:59:01;;;;;;;10.95;9.95;;;;;;;;;;5093267;28;20469;-80
2023/04/26 07:01:28;;;;;;;9.83;9.03;;;;;;;;;;5106048;28;20387;-80
2023/04/26 07:03:56;;;;;;;9.82;8.90;;;;;;;;;;5093639;28;20370;-79
2023/04/26 07:06:23;;;;;;;10.30;9.40;;;;;;;;;;5083614;28;20763;-79
2023/04/26 07:08:50;;;;;;;11.63;10.60;;;;;;;;;;5091000;28;20385;-79
2023/04/26 07:11:16;;;;;;;11.48;10.40;;;;;;;;;;5091097;28;20382;-80
2023/04/26 07:13:41;;;;;;;10.80;9.90;;;;;;;;;;5091022;28;20464;-79
2023/04/26 07:16:07;;;;;;;10.63;9.63;;;;;;;;;;5090713;28;20777;-81
2023/04/26 07:18:34;;;;;;;10.98;9.88;;;;;;;;;;5090886;28;20389;-81
2023/04/26 07:21:00;;;;;;;10.38;9.38;;;;;;;;;;5090911;28;20441;-84
2023/04/26 07:23:26;;;;;;;11.55;10.55;;;;;;;;;;5089997;28;20386;-80
2023/04/26 07:25:52;;;;;;;10.85;9.82;;;;;;;;;;5091240;28;20417;-80
2023/04/26 07:28:17;;;;;;;9.48;8.57;;;;;;;;;;5090044;28;20417;-80
2023/04/26 07:30:43;;;;;;;8.57;7.88;;;;;;;;;;5090303;28;20409;-80
2023/04/26 07:33:09;;;;;;;8.77;8.07;;;;;;;;;;5090713;28;20382;-80
2023/04/26 07:35:35;;;;;;;9.27;8.45;;;;;;;;;;5089927;28;20382;-80
2023/04/26 07:38:02;;;;;;;11.00;10.00;;;;;;;;;;5089774;28;20436;-81
2023/04/26 07:40:28;;;;;;;11.52;10.52;;;;;;;;;;5089957;28;20378;-80
2023/04/26 07:42:54;;;;;;;11.30;10.27;;;;;;;;;;5090697;28;20396;-81
2023/04/26 07:45:20;;;;;;;12.98;10.85;;;;;;;;;;5091043;28;20454;-78
2023/04/26 07:47:47;;;;;;;12.75;11.55;;;;;;;;;;5094262;28;20409;-81
2023/04/26 07:50:13;;;;;;;12.90;11.60;;;;;;;;;;5094458;28;20460;-80
2023/04/26 07:52:39;;;;;;;13.20;11.93;;;;;;;;;;5094661;28;20480;-80
2023/04/26 07:55:05;;;;;;;15.15;13.57;;;;;;;;;;5094606;28;20439;-79
2023/04/26 07:57:31;;;;;;;19.58;16.33;;;;;;;;;;5094448;28;20378;-80
2023/04/26 07:59:57;;;;;;;24.02;19.67;;;;;;;;;;5094510;28;20889;-79
2023/04/26 08:02:23;;;;;;;16.70;14.95;;;;;;;;;;5094135;28;20378;-80
2023/04/26 08:04:51;;;;;;;28.15;21.67;;;;;;;;;;5094375;28;20384;-79
2023/04/26 08:07:17;;;;;;;30.40;22.27;;;;;;;;;;5094127;28;20429;-80
2023/04/26 08:09:43;;;;;;;33.28;22.70;;;;;;;;;;5094265;28;20374;-80
2023/04/26 08:12:10;;;;;;;32.43;23.27;;;;;;;;;;5094235;28;20390;-80
2023/04/26 08:14:37;;;;;;;43.97;30.05;;;;;;;;;;5094078;28;20731;-80
2023/04/26 08:17:03;;;;;;;62.45;39.20;;;;;;;;;;5093615;28;20406;-79
2023/04/26 08:19:33;;;;;;;57.70;35.75;;;;;;;;;;5093999;28;20374;-80
2023/04/26 08:21:59;;;;;;;62.50;37.50;;;;;;;;;;5093951;28;20374;-79
2023/04/26 08:24:25;;;;;;;62.90;39.33;;;;;;;;;;5093853;28;20410;-79
2023/04/26 08:26:51;;;;;;;54.97;36.53;;;;;;;;;;5092912;28;20401;-80
2023/04/26 08:29:17;;;;;;;53.72;34.67;;;;;;;;;;5093862;28;20851;-80
2023/04/26 08:31:43;;;;;;;48.85;32.00;;;;;;;;;;5093571;28;20367;-80
2023/04/26 08:34:10;;;;;;;40.45;26.38;;;;;;;;;;5093783;28;20370;-80
2023/04/26 08:36:36;;;;;;;41.92;28.88;;;;;;;;;;5093568;28;20878;-80
2023/04/26 08:39:03;;;;;;;43.90;30.08;;;;;;;;;;5093647;28;20929;-80
2023/04/26 08:41:31;;;;;;;39.10;26.95;;;;;;;;;;5093606;28;20396;-81
2023/04/26 08:43:57;;;;;;;39.65;26.27;;;;;;;;;;5093171;28;20781;-80
2023/04/26 08:46:24;;;;;;;35.70;24.05;;;;;;;;;;5093431;28;20436;-80
2023/04/26 08:48:59;;;;;;;33.22;24.00;;;;;;;;;;5093103;28;20871;-80
2023/04/26 08:51:26;;;;;;;19.20;15.10;;;;;;;;;;5092260;28;20457;-80
2023/04/26 08:53:53;;;;;;;13.00;11.60;;;;;;;;;;5093028;28;20457;-80
2023/04/26 08:56:22;;;;;;;8.07;7.18;;;;;;;;;;5092863;28;20388;-80
2023/04/26 08:58:48;;;;;;;8.50;7.70;;;;;;;;;;5091605;28;20461;-82
2023/04/26 09:01:14;;;;;;;4.22;3.83;;;;;;;;;;5092207;28;20431;-79
2023/04/26 09:03:40;;;;;;;4.78;4.20;;;;;;;;;;5084988;28;20826;-82
2023/04/26 09:06:07;;;;;;;7.55;6.93;;;;;;;;;;5093083;28;20409;-81
2023/04/26 09:08:35;;;;;;;8.75;7.90;;;;;;;;;;5092510;28;20386;-80
2023/04/26 09:11:02;;;;;;;14.27;12.37;;;;;;;;;;5093147;28;20490;-81
2023/04/26 09:13:29;;;;;;;10.00;9.00;;;;;;;;;;5092453;28;20370;-81
2023/04/26 09:15:55;;;;;;;9.63;8.68;;;;;;;;;;5092215;28;20747;-81
2023/04/26 09:18:22;;;;;;;8.20;7.40;;;;;;;;;;5092900;28;20421;-81
2023/04/26 09:21:01;;;;;;;7.60;6.90;;;;;;;;;;5092917;28;20382;-81
2023/04/26 09:23:27;;;;;;;6.20;5.60;;;;;;;;;;5092887;28;20855;-82
2023/04/26 09:25:53;;;;;;;5.30;4.80;;;;;;;;;;5092387;28;20374;-81
2023/04/26 09:28:21;;;;;;;5.00;4.50;;;;;;;;;;5092425;28;20455;-81
2023/04/26 09:30:47;;;;;;;5.03;4.22;;;;;;;;;;5084375;28;20732;-81
2023/04/26 09:33:13;;;;;;;10.18;9.02;;;;;;;;;;5092860;28;20854;-81
2023/04/26 09:35:40;;;;;;;10.52;9.35;;;;;;;;;;5092714;28;20500;-81
2023/04/26 09:38:13;;;;;;;11.00;8.30;;;;;;;;;;5092664;28;20393;-81
2023/04/26 09:40:40;;;;;;;9.07;7.20;;;;;;;;;;5092731;28;20409;-81
2023/04/26 09:43:07;;;;;;;3.63;3.10;;;;;;;;;;5092150;28;20380;-81
2023/04/26 09:45:42;;;;;;;5.40;4.90;;;;;;;;;;5092447;28;20726;-81
2023/04/26 09:48:25;;;;;;;8.00;7.20;;;;;;;;;;5092419;28;20460;-81
2023/04/26 09:50:53;;;;;;;10.30;8.00;;;;;;;;;;5092372;28;20854;-81
2023/04/26 09:53:27;;;;;;;11.10;7.77;;;;;;;;;;5082732;28;20384;-81
2023/04/26 09:55:54;;;;;;;3.10;2.80;;;;;;;;;;5089952;28;20393;-80
2023/04/26 09:58:21;;;;;;;3.08;2.60;;;;;;;;;;5092253;28;20457;-81
2023/04/26 10:00:49;;;;;;;2.47;2.10;;;;;;;;;;5091762;28;20410;-80
2023/04/26 10:03:17;;;;;;;1.90;1.63;;;;;;;;;;5082310;28;20408;-80
2023/04/26 10:05:43;;;;;;;2.07;1.80;;;;;;;;;;5081993;28;20477;-82
2023/04/26 10:08:10;;;;;;;2.60;2.15;;;;;;;;;;5091185;28;20854;-79
2023/04/26 10:10:36;;;;;;;2.65;2.00;;;;;;;;;;5087740;28;20860;-79
2023/04/26 10:13:03;;;;;;;2.20;2.00;;;;;;;;;;5089674;28;20469;-80
2023/04/26 10:15:29;;;;;;;1.92;1.65;;;;;;;;;;5072673;28;20388;-81
2023/04/26 10:17:55;;;;;;;1.80;1.70;;;;;;;;;;5090500;28;20455;-81
2023/04/26 10:20:21;;;;;;;2.30;2.10;;;;;;;;;;5080273;28;20431;-82
2023/04/26 10:22:52;;;;;;;4.60;2.08;;;;;;;;;;5085695;28;20393;-82
2023/04/26 10:25:18;;;;;;;4.67;2.93;;;;;;;;;;5090730;28;20859;-82
2023/04/26 10:27:44;;;;;;;2.80;2.60;;;;;;;;;;5071568;28;20401;-80
2023/04/26 10:30:11;;;;;;;2.88;2.38;;;;;;;;;;5071073;28;20455;-81
2023/04/26 10:32:52;;;;;;;2.03;1.90;;;;;;;;;;5090466;28;20430;-82
2023/04/26 10:35:18;;;;;;;2.47;1.65;;;;;;;;;;5090988;28;20465;-82
2023/04/26 10:38:17;;;;;;;2.22;1.67;;;;;;;;;;5090928;28;20393;-81
2023/04/26 10:40:45;;;;;;;3.67;1.98;;;;;;;;;;5044443;28;20418;-83
2023/04/26 10:43:14;;;;;;;2.92;1.60;;;;;;;;;;5077453;28;20386;-83
2023/04/26 10:45:41;;;;;;;9.23;2.63;;;;;;;;;;5087971;28;20389;-81
2023/04/26 10:48:18;;;;;;;4.68;3.22;;;;;;;;;;5084131;28;20423;-81
2023/04/26 10:51:11;;;;;;;2.27;1.80;;;;;;;;;;5090932;28;20464;-82
2023/04/26 10:53:46;;;;;;;2.05;1.40;;;;;;;;;;5075767;28;20488;-82
2023/04/26 10:56:27;;;;;;;4.03;2.70;;;;;;;;;;5086931;28;20495;-81
2023/04/26 10:59:09;;;;;;;5.20;3.03;;;;;;;;;;5091124;28;20424;-82
2023/04/26 11:01:35;;;;;;;3.03;1.85;;;;;;;;;;5082059;28;20467;-82
2023/04/26 11:04:07;;;;;;;3.30;2.20;;;;;;;;;;5074611;28;20408;-82
2023/04/26 11:06:56;;;;;;;2.30;1.40;;;;;;;;;;5088404;28;20410;-81
2023/04/26 11:09:36;;;;;;;2.17;1.40;;;;;;;;;;5081048;28;20784;-82
2023/04/26 11:12:06;;;;;;;2.15;1.60;;;;;;;;;;5081818;28;20370;-82
2023/04/26 11:14:35;;;;;;;10.25;9.35;;;;;;;;;;5090996;28;20375;-85
2023/04/26 11:17:08;;;;;;;4.13;1.73;;;;;;;;;;5090503;28;20399;-82
2023/04/26 11:19:34;;;;;;;2.03;1.40;;;;;;;;;;5091420;28;20373;-81
2023/04/26 11:22:01;;;;;;;2.53;1.50;;;;;;;;;;5094060;28;20377;-82
2023/04/26 11:24:28;;;;;;;2.05;1.20;;;;;;;;;;5095216;28;20464;-83
2023/04/26 11:26:54;;;;;;;2.85;1.50;;;;;;;;;;5094438;28;20997;-81
2023/04/26 11:29:20;;;;;;;2.13;1.80;;;;;;;;;;5076634;28;20863;-82
2023/04/26 11:31:53;;;;;;;3.38;1.40;;;;;;;;;;5094988;28;20384;-81
2023/04/26 11:34:23;;;;;;;1.70;1.30;;;;;;;;;;5095092;28;20419;-83
2023/04/26 11:36:50;;;;;;;2.60;1.30;;;;;;;;;;5076957;28;20390;-82
2023/04/26 11:39:16;;;;;;;1.98;1.17;;;;;;;;;;5095011;28;20457;-82
2023/04/26 11:41:42;;;;;;;2.13;1.55;;;;;;;;;;5094971;28;20912;-81
2023/04/26 11:44:10;;;;;;;1.50;1.10;;;;;;;;;;5089481;28;20774;-83
2023/04/26 11:46:36;;;;;;;1.87;1.17;;;;;;;;;;5084483;28;20492;-83
2023/04/26 11:49:02;;;;;;;2.60;2.20;;;;;;;;;;5074969;28;20390;-83
2023/04/26 11:51:28;;;;;;;3.42;1.30;;;;;;;;;;5094706;28;20385;-83
2023/04/26 11:53:55;;;;;;;2.38;1.25;;;;;;;;;;5094626;28;20382;-82
2023/04/26 11:56:21;;;;;;;2.80;1.60;;;;;;;;;;5094989;28;20731;-80
2023/04/26 11:58:51;;;;;;;1.30;1.20;;;;;;;;;;5094711;28;20374;-82
2023/04/26 12:01:22;;;;;;;2.50;1.50;;;;;;;;;;5089152;28;20377;-82
2023/04/26 12:03:49;;;;;;;2.15;1.30;;;;;;;;;;5094352;28;20439;-81
2023/04/26 12:06:15;;;;;;;2.35;1.40;;;;;;;;;;5094294;28;20452;-80
2023/04/26 12:08:41;;;;;;;1.40;1.20;;;;;;;;;;5094195;28;20370;-80
2023/04/26 12:11:07;;;;;;;4.15;2.47;;;;;;;;;;5093678;28;20804;-81
2023/04/26 12:13:33;;;;;;;2.60;2.10;;;;;;;;;;5093927;28;20452;-81
2023/04/26 12:15:59;;;;;;;2.45;1.52;;;;;;;;;;5094176;28;20386;-81
2023/04/26 12:18:31;;;;;;;1.90;1.10;;;;;;;;;;5094222;28;20386;-81
2023/04/26 12:20:58;;;;;;;3.20;1.20;;;;;;;;;;5094195;28;20390;-81
2023/04/26 12:23:25;;;;;;;1.80;1.50;;;;;;;;;;5093841;28;20389;-80
2023/04/26 12:25:55;;;;;;;2.58;1.48;;;;;;;;;;5093041;28;20894;-81
2023/04/26 12:28:22;;;;;;;2.42;1.50;;;;;;;;;;5093978;28;20444;-81
2023/04/26 12:30:48;;;;;;;2.10;1.50;;;;;;;;;;5093682;28;20490;-80
2023/04/26 12:33:15;;;;;;;2.85;1.40;;;;;;;;;;5091870;28;20465;-80
2023/04/26 12:35:41;;;;;;;3.30;1.30;;;;;;;;;;5093768;28;20431;-81
2023/04/26 12:38:08;;;;;;;2.20;1.40;;;;;;;;;;5093562;28;20422;-81
2023/04/26 12:40:34;;;;;;;2.10;1.15;;;;;;;;;;5093769;28;20377;-81
2023/04/26 12:43:00;;;;;;;2.33;1.30;;;;;;;;;;5093777;28;20388;-81
2023/04/26 12:45:26;;;;;;;2.15;1.45;;;;;;;;;;5093543;28;20898;-81
2023/04/26 12:47:52;;;;;;;2.22;1.20;;;;;;;;;;5093580;28;20509;-80
2023/04/26 12:50:18;;;;;;;2.33;1.20;;;;;;;;;;5093610;28;20378;-80
2023/04/26 12:52:45;;;;;;;2.63;1.20;;;;;;;;;;5093570;28;20427;-80
2023/04/26 12:55:11;;;;;;;2.70;2.08;;;;;;;;;;5093515;28;20371;-81
2023/04/26 12:57:38;;;;;;;2.78;1.58;;;;;;;;;;5093402;28;20388;-81
2023/04/26 13:00:10;;;;;;;1.77;1.30;;;;;;;;;;5093479;28;20378;-81
2023/04/26 13:02:36;;;;;;;1.98;1.40;;;;;;;;;;5092902;28;20413;-81
2023/04/26 13:05:06;;;;;;;2.87;2.10;;;;;;;;;;5093398;28;20460;-81
2023/04/26 13:07:33;;;;;;;2.15;1.50;;;;;;;;;;5093021;28;20413;-80
2023/04/26 13:10:02;;;;;;;2.97;1.85;;;;;;;;;;5093348;28;20378;-81
2023/04/26 13:12:29;;;;;;;3.65;1.20;;;;;;;;;;5093117;28;20740;-80
2023/04/26 13:14:55;;;;;;;2.13;1.30;;;;;;;;;;5093252;28;20381;-80
2023/04/26 13:17:23;;;;;;;3.15;1.85;;;;;;;;;;5091753;28;20767;-80
2023/04/26 13:19:49;;;;;;;3.33;1.38;;;;;;;;;;5091491;28;20886;-80
2023/04/26 13:22:15;;;;;;;2.85;1.40;;;;;;;;;;5093016;28;20378;-80
2023/04/26 13:24:41;;;;;;;2.07;1.30;;;;;;;;;;5092908;28;20390;-80
2023/04/26 13:27:07;;;;;;;3.03;2.00;;;;;;;;;;5092809;28;20436;-80
2023/04/26 13:29:34;;;;;;;2.42;1.48;;;;;;;;;;5092432;28;20875;-80
2023/04/26 13:32:00;;;;;;;3.10;1.67;;;;;;;;;;5092760;28;20402;-80
2023/04/26 13:34:26;;;;;;;4.95;1.50;;;;;;;;;;5092790;28;20716;-80
2023/04/26 13:36:53;;;;;;;2.80;1.35;;;;;;;;;;5092571;28;20834;-80
2023/04/26 13:39:19;;;;;;;4.00;1.52;;;;;;;;;;5092668;28;20430;-80
2023/04/26 13:41:45;;;;;;;2.45;1.55;;;;;;;;;;5092700;28;20406;-80
2023/04/26 13:44:13;;;;;;;3.10;1.60;;;;;;;;;;5092167;28;20413;-81
2023/04/26 13:46:39;;;;;;;2.13;1.70;;;;;;;;;;5092517;28;20477;-80
2023/04/26 13:49:05;;;;;;;3.50;1.38;;;;;;;;;;5091952;28;20382;-80
2023/04/26 13:51:33;;;;;;;2.03;1.45;;;;;;;;;;5092414;28;20385;-81
2023/04/26 13:53:59;;;;;;;2.45;1.45;;;;;;;;;;5092335;28;20382;-80
2023/04/26 13:56:25;;;;;;;3.08;1.73;;;;;;;;;;5074036;28;20366;-80
2023/04/26 13:58:55;;;;;;;2.65;1.70;;;;;;;;;;5092235;28;20755;-81
2023/04/26 14:01:21;;;;;;;3.30;1.52;;;;;;;;;;5092368;28;20378;-81
2023/04/26 14:03:47;;;;;;;2.72;1.67;;;;;;;;;;5092244;28;20410;-81
2023/04/26 14:06:13;;;;;;;2.35;1.35;;;;;;;;;;5091958;28;20939;-81
2023/04/26 14:08:39;;;;;;;3.38;1.60;;;;;;;;;;5092143;28;20406;-81
2023/04/26 14:11:06;;;;;;;2.72;1.30;;;;;;;;;;5092033;28;20378;-80
2023/04/26 14:13:32;;;;;;;2.42;1.58;;;;;;;;;;5092127;28;20902;-81
2023/04/26 14:15:59;;;;;;;1.63;1.20;;;;;;;;;;5091766;28;20461;-80
2023/04/26 14:18:25;;;;;;;3.00;1.47;;;;;;;;;;5091873;28;20374;-80
2023/04/26 14:20:51;;;;;;;2.10;1.58;;;;;;;;;;5091967;28;20378;-81
2023/04/26 14:23:17;;;;;;;1.90;1.40;;;;;;;;;;5091855;28;20381;-81
2023/04/26 14:25:43;;;;;;;2.05;1.50;;;;;;;;;;5091830;28;20385;-81
2023/04/26 14:28:09;;;;;;;2.05;1.45;;;;;;;;;;5091310;28;20414;-81
2023/04/26 14:30:35;;;;;;;2.38;1.30;;;;;;;;;;5091762;28;20964;-81
2023/04/26 14:33:01;;;;;;;2.00;1.30;;;;;;;;;;5091407;28;20378;-80
2023/04/26 14:35:27;;;;;;;2.97;1.73;;;;;;;;;;5091674;28;20797;-81
2023/04/26 14:37:53;;;;;;;2.45;1.50;;;;;;;;;;5091692;28;20378;-81